Time;durP1;ratioP1;P1;durP2;ratioP2;P2;SDS_P1;SDS_P2;PMS_P1;PMS_P2;Temp;Humidity;BMP_temperature;BMP_pressure;BME280_temperature;BME280_humidity;BME280_pressure;Samples;Min_cycle;Max_cycle;Signal;HPM_P1;HPM_P2
2022/08/11 00:02:06;;;;;;;;;;;;;;;;;;;;;
2022/08/11 00:04:59;;;;;;;9.10;4.03;;;14.70;99.90;;;13.73;100.00;102207.69;4946934;28;20297;-80
2022/08/11 00:07:56;;;;;;;6.82;4.57;;;;;;;13.71;100.00;102210.41;4947728;28;20221;-80
2022/08/11 00:10:46;;;;;;;8.15;4.25;;;14.70;99.90;;;13.71;100.00;102206.88;4957001;28;20541;-80
2022/08/11 00:13:15;;;;;;;10.15;4.38;;;;;;;13.69;100.00;102203.41;4910361;28;20086;-80
2022/08/11 00:16:24;;;;;;;6.10;4.15;;;14.70;99.90;;;13.64;100.00;102202.72;4883207;28;20046;-80
2022/08/11 00:19:07;;;;;;;6.15;3.85;;;14.70;99.90;;;13.57;100.00;102199.44;4986308;28;20045;-80
2022/08/11 00:21:45;;;;;;;10.55;3.90;;;14.60;99.90;;;13.64;100.00;102208.03;4967805;28;20049;-80
2022/08/11 00:24:34;;;;;;;6.43;3.90;;;;;;;13.64;100.00;102208.03;4956829;28;20045;-79
2022/08/11 00:27:00;;;;;;;8.32;4.03;;;14.70;99.90;;;13.64;100.00;102205.38;4963909;28;20041;-80
2022/08/11 00:29:26;;;;;;;7.60;3.75;;;14.60;99.90;;;13.64;100.00;102200.94;5003308;28;20030;-79
2022/08/11 00:31:55;;;;;;;6.18;3.90;;;14.60;99.90;;;13.65;100.00;102205.34;4990456;28;20043;-79
2022/08/11 00:34:36;;;;;;;11.50;4.10;;;14.60;99.90;;;13.64;100.00;102202.72;4977310;28;21880;-80
2022/08/11 00:37:08;;;;;;;6.60;3.60;;;14.60;99.90;;;13.60;100.00;102204.59;4974012;28;20050;-80
2022/08/11 00:39:45;;;;;;;7.40;3.90;;;14.60;99.90;;;13.52;100.00;102194.31;4992416;28;20038;-79
2022/08/11 00:42:29;;;;;;;7.35;3.75;;;14.60;99.90;;;13.48;100.00;102198.00;4967107;28;20042;-79
2022/08/11 00:45:08;;;;;;;8.75;3.92;;;14.50;99.90;;;13.44;100.00;102200.81;4989201;28;20050;-79
2022/08/11 00:48:04;;;;;;;6.55;3.38;;;14.40;99.90;;;13.38;100.00;102203.66;4976978;28;20525;-78
2022/08/11 00:51:31;;;;;;;6.97;3.70;;;14.30;99.90;;;13.29;100.00;102202.19;4959091;28;20118;-79
2022/08/11 00:54:30;;;;;;;7.45;3.75;;;14.30;99.90;;;13.22;100.00;102198.88;5005511;28;20133;-79
2022/08/11 00:57:23;;;;;;;11.88;3.78;;;14.20;99.90;;;13.20;100.00;102203.34;4974813;28;20037;-79
2022/08/11 01:00:09;;;;;;;8.93;3.58;;;14.20;99.90;;;13.18;100.00;102197.25;4989698;28;20027;-79
2022/08/11 01:03:16;;;;;;;12.65;4.57;;;14.20;99.90;;;13.11;100.00;102196.59;4970117;28;20046;-79
2022/08/11 01:06:16;;;;;;;7.22;3.97;;;14.00;99.90;;;12.88;100.00;102194.69;4985037;28;20084;-79
2022/08/11 01:09:24;;;;;;;252.63;6.18;;;13.80;99.90;;;12.62;100.00;102199.97;4990318;28;20137;-79
2022/08/11 01:12:20;;;;;;;9.45;1.40;;;13.60;99.90;;;12.36;100.00;102209.56;4990567;23;20045;-79
2022/08/11 01:15:32;;;;;;;5.07;2.42;;;13.40;99.90;;;12.18;100.00;102205.72;5063047;28;20579;-78
2022/08/11 01:18:38;;;;;;;4.65;3.28;;;13.30;99.90;;;12.10;100.00;102207.72;5034598;28;20045;-79
2022/08/11 01:22:10;;;;;;;4.75;3.30;;;13.30;99.90;;;12.08;100.00;102210.38;5025548;28;20075;-79
2022/08/11 01:25:22;;;;;;;3.22;2.92;;;13.20;99.90;;;12.08;100.00;102213.03;5015929;28;20060;-79
2022/08/11 01:28:25;;;;;;;5.45;3.30;;;13.20;99.90;;;12.11;100.00;102204.16;5008763;28;20557;-79
2022/08/11 01:34:30;;;;;;;4.30;3.30;;;13.30;99.90;;;12.26;100.00;102200.19;4992468;22;20044;-79
2022/08/11 01:37:16;;;;;;;6.57;3.78;;;13.30;99.90;;;12.35;100.00;102210.47;4879829;28;20068;-77
2022/08/11 01:40:26;;;;;;;7.30;3.78;;;13.50;99.90;;;12.45;100.00;102204.00;4902649;28;20583;-79
2022/08/11 01:47:06;;;;;;;5.40;3.33;;;;;;;12.52;100.00;102202.88;4886258;28;20103;-79
2022/08/11 01:50:34;;;;;;;5.38;3.50;;;;;;;12.51;100.00;102202.94;4856010;28;20055;-79
2022/08/11 01:53:15;;;;;;;7.45;3.22;;;13.50;99.90;;;12.41;100.00;102205.00;4989009;22;20041;-78
2022/08/11 01:56:09;;;;;;;9.45;3.85;;;13.40;99.90;;;12.34;100.00;102203.47;5045295;28;20048;-79
2022/08/11 01:58:59;;;;;;;4.15;2.90;;;13.40;99.90;;;12.25;100.00;102207.25;5052876;28;20040;-78
2022/08/11 02:01:37;;;;;;;4.68;2.28;;;13.30;99.90;;;12.22;100.00;102202.03;5019507;28;20043;-79
2022/08/11 02:04:35;;;;;;;6.25;2.80;;;13.30;99.90;;;12.29;100.00;102197.47;5018708;28;20512;-79
2022/08/11 02:07:14;;;;;;;6.32;2.88;;;13.30;99.90;;;12.34;100.00;102194.69;5022572;28;20036;-79
2022/08/11 02:11:29;;;;;;;3.65;2.65;;;13.40;99.90;;;12.39;100.00;102206.81;5020637;28;20040;-79
2022/08/11 02:13:19;;;;;;;4.97;2.75;;;13.40;99.90;;;12.42;100.00;102192.66;5043783;28;20657;-79
2022/08/11 02:15:55;;;;;;;9.68;3.25;;;13.50;99.90;;;12.48;100.00;102198.63;5029593;28;20497;-79
2022/08/11 02:24:43;;;;;;;4.47;2.67;;;13.60;99.90;;;12.58;100.00;102199.19;5028329;28;20043;-78
2022/08/11 02:27:22;;;;;;;3.22;2.15;;;13.60;99.90;;;12.60;100.00;102199.16;5041959;28;20022;-78
2022/08/11 02:30:14;;;;;;;8.80;2.60;;;13.60;99.90;;;12.64;100.00;102200.78;5026956;28;20078;-78
2022/08/11 02:33:23;;;;;;;4.38;2.40;;;13.60;99.90;;;12.62;100.00;102198.19;5045622;28;20043;-79
2022/08/11 02:36:18;;;;;;;4.90;2.60;;;13.60;99.90;;;12.62;100.00;102195.53;5031911;28;20408;-78
2022/08/11 02:38:56;;;;;;;6.78;2.38;;;13.70;99.90;;;12.63;100.00;102186.69;5043552;28;20025;-79
2022/08/11 02:42:36;;;;;;;5.47;2.38;;;13.60;99.90;;;12.65;100.00;102187.50;5005339;28;20135;-79
2022/08/11 02:45:57;;;;;;;2.70;2.10;;;13.60;99.90;;;12.60;100.00;102191.22;4880372;28;20042;-79
2022/08/11 02:52:24;;;;;;;2.85;2.38;;;13.50;99.90;;;12.48;100.00;102193.34;4886769;28;20050;-79
2022/08/11 02:55:19;;;;;;;8.77;2.45;;;13.50;99.90;;;12.40;100.00;102192.72;4904356;28;20043;-79
2022/08/11 02:58:30;;;;;;;2.80;2.00;;;13.40;99.90;;;12.35;100.00;102197.25;5018225;28;20132;-78
2022/08/11 03:01:18;;;;;;;4.07;2.20;;;13.40;99.90;;;12.31;100.00;102193.00;4989180;28;20082;-79
2022/08/11 03:04:01;;;;;;;3.47;2.40;;;13.40;99.90;;;12.34;100.00;102189.41;5017629;28;20059;-79
2022/08/11 03:06:48;;;;;;;4.13;1.98;;;13.30;99.90;;;12.40;100.00;102189.22;5037700;28;20396;-77
2022/08/11 03:10:16;;;;;;;4.65;2.40;;;13.40;99.90;;;12.36;100.00;102180.50;4965263;28;20060;-79
2022/08/11 03:16:44;;;;;;;4.50;2.53;;;13.40;99.90;;;12.36;100.00;102179.66;4989678;28;20068;-79
2022/08/11 03:19:45;;;;;;;3.45;2.50;;;14.50;99.90;;;12.34;100.00;102174.41;4962110;28;20040;-79
2022/08/11 03:22:33;;;;;;;4.30;2.80;;;13.30;99.90;;;12.28;100.00;102171.94;5005812;28;20115;-79
2022/08/11 03:25:17;;;;;;;4.90;2.40;;;14.20;99.90;;;12.25;100.00;102172.91;4995149;28;20653;-79
2022/08/11 03:28:08;;;;;;;4.55;2.90;;;13.30;99.90;;;12.23;100.00;102173.88;5049439;28;20036;-79
2022/08/11 03:30:42;;;;;;;6.13;2.65;;;13.20;99.90;;;12.17;100.00;102171.41;5028176;28;20040;-79
2022/08/11 03:36:46;;;;;;;6.88;3.03;;;13.00;99.90;;;11.94;100.00;102165.03;5047973;28;20045;-79
2022/08/11 03:39:32;;;;;;;5.10;2.20;;;13.00;99.90;;;11.89;100.00;102164.31;5044906;28;20660;-79
2022/08/11 03:42:08;;;;;;;4.95;2.47;;;12.90;99.90;;;11.86;100.00;102164.38;5038321;28;20035;-79
2022/08/11 03:45:18;;;;;;;10.55;3.22;;;12.90;99.90;;;11.86;100.00;102164.38;4996458;28;20036;-79
2022/08/11 03:48:28;;;;;;;4.95;3.10;;;12.90;99.90;;;11.88;100.00;102163.47;5047611;28;20040;-79
2022/08/11 03:51:40;;;;;;;5.88;2.90;;;12.90;99.90;;;11.92;100.00;102166.84;5003436;28;20055;-79
2022/08/11 03:54:11;;;;;;;5.55;2.70;;;13.00;99.90;;;12.00;100.00;102171.91;5033773;28;20516;-78
2022/08/11 03:57:10;;;;;;;5.80;3.03;;;13.00;99.90;;;12.07;100.00;102171.72;5019738;28;20028;-77
2022/08/11 04:00:12;;;;;;;4.55;2.95;;;13.00;99.90;;;12.04;100.00;102166.50;5046830;28;20123;-78
2022/08/11 04:03:19;;;;;;;5.22;2.72;;;13.00;99.90;;;11.95;100.00;102169.41;5029855;28;20036;-78
2022/08/11 04:06:36;;;;;;;4.18;2.50;;;12.90;99.90;;;11.93;100.00;102167.75;4967900;28;20124;-79
2022/08/11 04:09:45;;;;;;;8.85;2.83;;;12.90;99.90;;;11.97;100.00;102159.69;5007954;28;20028;-79
2022/08/11 04:12:44;;;;;;;7.93;3.15;;;12.90;99.90;;;12.05;100.00;102175.28;5031871;28;20478;-79
2022/08/11 04:15:59;;;;;;;11.18;3.22;;;13.00;99.90;;;12.16;100.00;102177.59;5048811;28;20052;-79
2022/08/11 04:19:03;;;;;;;7.05;3.05;;;13.10;99.90;;;12.25;100.00;102172.91;4994442;28;20033;-79
2022/08/11 04:22:13;;;;;;;4.93;2.90;;;13.20;99.90;;;12.41;100.00;102177.72;5014693;28;20124;-79
2022/08/11 04:25:05;;;;;;;6.13;2.65;;;13.20;99.90;;;12.67;100.00;102180.41;5037302;22;20046;-74
2022/08/11 04:28:09;;;;;;;4.22;2.40;;;14.30;99.90;;;14.74;100.00;102187.91;4989785;28;20088;-72
2022/08/11 04:31:09;;;;;;;4.70;2.15;;;16.30;99.90;;;17.47;92.71;102193.94;4979908;28;20050;-73
2022/08/11 04:34:21;;;;;;;3.55;2.15;;;18.10;99.90;;;19.15;77.40;102196.19;4960043;28;20037;-74
2022/08/11 04:37:35;;;;;;;5.45;2.10;;;19.50;99.90;;;20.64;70.21;102202.97;4966938;28;20039;-72
2022/08/11 04:40:40;;;;;;;2.92;1.90;;;20.90;99.90;;;22.42;63.48;102211.22;4967517;28;20042;-73
2022/08/11 04:43:43;;;;;;;3.50;1.90;;;22.10;99.90;;;23.57;60.24;102217.78;4953438;28;20042;-76
2022/08/11 04:46:29;;;;;;;3.10;1.65;;;23.20;99.90;;;24.98;56.21;102226.06;4957705;28;20168;-74
2022/08/11 05:02:57;;;;;;;4.03;1.65;;;28.00;96.30;;;31.23;43.59;102263.78;4967895;28;20133;-74
2022/08/11 05:05:34;;;;;;;;;;;28.30;95.80;;;32.79;42.22;102268.69;4967908;28;20124;-74
2022/08/11 05:08:42;;;;;;;5.13;1.52;;;29.80;96.00;;;34.10;38.49;102267.47;4967841;28;19925;-73
2022/08/11 05:12:14;;;;;;;4.70;1.33;;;30.60;92.30;;;34.81;37.66;102279.66;4966167;28;20038;-76
2022/08/11 05:34:52;;;;;;;9.00;1.30;;;34.40;84.50;;;39.11;31.78;102335.72;4961338;28;20109;-71
2022/08/11 05:37:32;;;;;;;4.63;1.33;;;34.80;85.50;;;39.74;31.13;102335.63;4952453;28;20039;-72
2022/08/11 05:57:20;;;;;;;6.30;1.30;;;36.70;80.20;;;41.63;28.67;102364.03;4971019;28;20559;-73
2022/08/11 05:59:48;;;;;;;4.97;1.30;;;37.00;79.10;;;41.75;28.44;102362.13;4969940;28;20150;-72
2022/08/11 06:02:15;;;;;;;3.63;1.10;;;37.30;75.90;;;41.97;28.09;102370.63;4961051;28;20604;-73
2022/08/11 06:04:42;;;;;;;4.85;1.33;;;37.40;76.40;;;41.68;28.36;102363.31;4958612;28;20046;-72
2022/08/11 06:07:16;;;;;;;3.50;1.50;;;37.60;75.00;;;41.68;28.07;102372.44;4962584;28;20442;-75
2022/08/11 06:09:50;;;;;;;4.95;1.38;;;37.50;74.80;;;41.40;28.26;102370.38;4969634;28;20088;-72
2022/08/11 06:12:25;;;;;;;1.92;1.25;;;37.50;73.50;;;41.12;28.77;102363.56;4949387;28;20662;-72
2022/08/11 06:14:55;;;;;;;5.43;1.50;;;37.60;74.00;;;41.31;28.08;102358.81;4959387;28;20089;-71
2022/08/11 06:17:29;;;;;;;2.50;1.33;;;37.50;73.40;;;41.04;28.37;102354.78;4973904;28;20499;-72
2022/08/11 06:20:06;;;;;;;6.00;1.33;;;37.30;72.50;;;40.15;28.86;102358.94;4954387;28;20121;-72
2022/08/11 06:22:33;;;;;;;1.83;1.10;;;37.50;75.20;;;41.15;28.39;102348.50;4951504;28;20034;-72
2022/08/11 06:25:05;;;;;;;4.00;1.60;;;37.30;72.00;;;40.12;28.96;102356.63;4937165;28;20088;-73
2022/08/11 06:27:35;;;;;;;5.22;1.50;;;37.40;75.10;;;40.57;28.94;102349.94;4955993;28;20045;-72
2022/08/11 06:30:12;;;;;;;2.15;1.50;;;37.50;71.80;;;40.38;29.01;102343.63;4965452;28;20185;-72
2022/08/11 06:32:42;;;;;;;6.20;1.63;;;36.90;70.20;;;38.03;30.67;102340.06;4936743;28;20114;-73
2022/08/11 06:35:44;;;;;;;3.55;1.50;;;36.40;70.80;;;37.46;31.26;102328.69;4959456;28;20051;-73
2022/08/11 06:38:41;;;;;;;2.95;1.52;;;36.00;71.70;;;36.83;32.26;102331.81;4936852;28;20039;-72
2022/08/11 06:41:29;;;;;;;7.00;1.80;;;35.30;73.40;;;36.46;32.67;102313.91;4955933;28;20031;-73
2022/08/11 06:44:13;;;;;;;2.33;1.27;;;35.60;75.40;;;37.80;31.28;102317.66;4942793;28;20038;-72
2022/08/11 06:46:42;;;;;;;5.40;1.70;;;35.60;71.70;;;36.73;32.41;102310.22;4954998;28;20031;-73
2022/08/11 06:52:06;;;;;;;4.07;1.73;;;35.70;73.60;;;37.00;30.90;102301.19;4969370;28;20557;-72
2022/08/11 06:54:40;;;;;;;6.03;1.50;;;35.40;72.90;;;36.21;32.38;102295.28;4948887;28;20045;-72
2022/08/11 07:03:10;;;;;;;3.73;1.87;;;35.50;72.70;;;36.40;32.33;102281.84;4969457;28;20045;-73
2022/08/11 07:05:54;;;;;;;4.22;1.42;;;36.00;72.20;;;37.57;31.08;102279.69;4924996;28;20026;-73
2022/08/11 07:29:02;;;;;;;2.28;1.20;;;37.70;66.60;;;37.34;30.97;102269.97;4957736;28;20072;-74
2022/08/11 07:31:40;;;;;;;2.25;1.20;;;38.00;67.90;;;38.17;30.07;102272.97;4941626;28;20077;-74
2022/08/11 07:34:42;;;;;;;3.42;1.50;;;38.20;67.30;;;38.37;30.03;102263.75;4933631;28;20382;-73
2022/08/11 07:37:18;;;;;;;3.30;1.35;;;38.70;67.70;;;38.96;29.54;102272.72;4939937;28;20470;-74
2022/08/11 07:39:45;;;;;;;;;;;38.70;68.30;;;38.17;29.40;102258.38;4953272;28;20039;-74
2022/08/11 07:42:18;;;;;;;2.83;1.50;;;38.10;66.10;;;37.10;31.91;102254.97;4944536;28;20394;-73
2022/08/11 07:53:08;;;;;;;3.92;1.55;;;38.00;67.70;;;37.57;30.56;102253.06;4957881;28;20121;-74
2022/08/11 07:55:34;;;;;;;9.80;1.77;;;37.90;65.60;;;37.36;30.92;102257.69;4956505;28;20027;-74
2022/08/11 08:20:15;;;;;;;3.85;1.52;;;36.50;68.50;;;36.49;32.22;102240.31;4956151;28;20038;-74
2022/08/11 08:22:41;;;;;;;20.38;2.13;;;36.70;65.70;;;36.47;30.61;102241.56;4931653;28;20050;-73
2022/08/11 08:25:08;;;;;;;15.82;2.10;;;36.50;65.40;;;35.54;31.80;102231.00;4951740;28;20630;-74
2022/08/11 08:27:37;;;;;;;6.28;1.20;;;36.30;64.30;;;35.46;29.99;102231.16;4960276;28;20038;-73
2022/08/11 08:32:51;;;;;;;2.42;1.10;;;35.50;64.20;;;34.52;31.36;102230.31;4957277;28;20514;-73
2022/08/11 08:35:18;;;;;;;3.85;1.23;;;35.00;63.90;;;34.09;31.69;102223.91;4938397;28;20639;-74
2022/08/11 08:37:44;;;;;;;4.30;1.30;;;34.60;65.90;;;33.77;32.17;102230.63;4959950;28;20548;-73
2022/08/11 08:40:12;;;;;;;4.93;1.20;;;34.30;67.10;;;33.58;32.74;102218.38;4956626;28;20030;-74
2022/08/11 08:42:52;;;;;;;2.38;1.17;;;33.90;67.00;;;33.08;33.25;102215.28;4941472;28;20517;-74
2022/08/11 08:45:19;;;;;;;8.82;1.10;;;33.20;69.00;;;32.59;34.53;102215.66;4941929;28;20557;-74
2022/08/11 08:47:56;;;;;;;3.50;1.10;;;32.80;67.00;;;32.10;33.37;102215.94;4943843;28;20644;-74
2022/08/11 08:51:32;;;;;;;10.68;1.50;;;32.30;67.70;;;31.67;34.07;102203.47;4986810;28;20104;-73
2022/08/11 08:53:12;;;;;;;3.80;1.42;;;32.10;70.80;;;31.71;35.34;102205.84;4953481;28;20035;-73
2022/08/11 08:55:40;;;;;;;7.40;1.50;;;31.90;71.00;;;31.35;36.09;102198.94;4943636;28;20035;-74
2022/08/11 08:58:07;;;;;;;40.97;3.58;;;31.50;68.00;;;30.56;35.02;102197.75;4963024;28;20090;-74
2022/08/11 09:00:45;;;;;;;17.23;1.80;;;31.10;68.30;;;30.27;35.88;102193.59;4958997;28;20041;-74
2022/08/11 09:03:12;;;;;;;7.32;1.50;;;30.50;72.60;;;29.24;37.89;102188.16;4963478;28;20031;-74
2022/08/11 09:05:40;;;;;;;2.15;1.30;;;30.20;74.60;;;29.33;39.26;102191.78;4956109;28;20502;-74
2022/08/11 09:08:06;;;;;;;23.02;2.33;;;30.10;73.00;;;29.24;38.57;102185.44;4957879;28;20085;-73
2022/08/11 09:10:33;;;;;;;8.85;1.40;;;30.00;74.70;;;29.39;38.81;102177.59;4966844;28;20026;-74
2022/08/11 09:13:02;;;;;;;4.15;1.40;;;30.00;73.80;;;29.47;38.33;102184.94;4962842;28;20541;-74
2022/08/11 09:15:29;;;;;;;3.15;1.23;;;30.10;72.80;;;29.41;38.37;102179.13;4958528;28;20068;-74
2022/08/11 09:18:05;;;;;;;2.10;1.20;;;30.10;71.20;;;29.46;37.20;102181.38;4959061;28;20062;-73
2022/08/11 09:20:38;;;;;;;1.88;1.15;;;30.10;71.40;;;29.42;37.23;102186.25;4942969;28;20458;-74
2022/08/11 09:28:48;;;;;;;1.58;1.10;;;29.70;74.10;;;28.71;38.61;102165.53;4957892;28;20097;-73
2022/08/11 09:31:16;;;;;;;6.57;1.50;;;29.60;75.10;;;28.83;39.20;102163.44;4957495;28;20077;-73
2022/08/11 09:33:43;;;;;;;5.28;1.48;;;29.30;74.50;;;28.48;39.51;102170.56;4948552;28;20041;-73
2022/08/11 09:41:44;;;;;;;5.90;1.30;;;29.30;75.30;;;28.49;39.50;102172.28;4963252;28;20085;-74
2022/08/11 09:46:58;;;;;;;8.10;1.50;;;28.90;78.00;;;28.01;40.66;102160.75;4967285;28;20321;-74
2022/08/11 09:49:26;;;;;;;2.30;1.20;;;28.90;77.10;;;28.32;39.61;102163.09;4963054;28;20038;-74
2022/08/11 09:51:53;;;;;;;2.20;1.20;;;28.90;76.20;;;28.39;39.88;102158.78;4961658;28;20476;-73
2022/08/11 09:54:26;;;;;;;4.63;1.42;;;29.10;76.70;;;28.87;40.15;102153.97;4959993;28;20458;-74
2022/08/11 09:59:38;;;;;;;1.75;1.25;;;29.20;76.50;;;28.62;39.76;102153.78;4966342;28;20041;-75
2022/08/11 10:02:08;;;;;;;6.60;1.90;;;29.20;74.10;;;28.50;39.33;102156.88;4961567;28;20110;-73
2022/08/11 10:04:47;;;;;;;4.22;1.48;;;29.30;75.60;;;28.74;39.49;102161.66;4954301;28;20125;-74
2022/08/11 10:07:15;;;;;;;1.70;1.30;;;29.40;76.00;;;29.00;38.71;102154.41;4956652;28;20088;-74
2022/08/11 10:09:55;;;;;;;5.57;1.30;;;29.30;75.70;;;28.77;39.81;102147.78;4963818;28;20093;-73
2022/08/11 10:12:36;;;;;;;3.40;1.50;;;29.40;75.70;;;29.01;38.79;102152.56;4964627;28;20557;-74
2022/08/11 10:26:49;;;;;;;2.30;1.60;;;29.30;73.40;;;28.65;39.15;102140.94;4902428;29;20051;-74
2022/08/11 10:27:43;;;;;;;4.13;1.27;;;29.20;74.70;;;28.74;38.90;102139.97;4951674;28;20062;-74
2022/08/11 10:35:44;;;;;;;1.77;1.40;;;29.50;72.80;;;28.75;37.18;102144.41;4955892;28;20050;-74
2022/08/11 10:38:14;;;;;;;2.45;1.40;;;29.40;73.30;;;29.04;38.05;102141.41;4945124;28;20042;-74
2022/08/11 10:43:01;;;;;;;3.80;1.73;;;29.50;75.40;;;29.23;37.90;102141.22;4939662;28;20531;-73
2022/08/11 10:43:36;;;;;;;5.40;1.20;;;29.50;73.00;;;28.99;37.73;102131.03;4963246;28;20034;-73
2022/08/11 10:48:46;;;;;;;1.30;1.20;;;29.40;72.90;;;28.45;38.95;102141.06;4965757;28;20084;-73
2022/08/11 10:51:13;;;;;;;2.53;1.23;;;29.30;73.00;;;28.62;38.50;102128.56;4980962;28;20492;-72
2022/08/11 10:59:29;;;;;;;6.32;1.50;;;29.50;73.90;;;29.30;37.74;102129.72;4949375;28;20105;-73
2022/08/11 11:01:57;;;;;;;3.88;1.40;;;29.70;74.50;;;29.28;37.63;102126.31;4932009;28;20031;-74
2022/08/11 11:04:37;;;;;;;7.15;1.50;;;29.60;73.50;;;28.97;37.81;102124.91;4941822;28;20038;-73
2022/08/11 11:07:22;;;;;;;4.72;1.23;;;29.70;73.40;;;28.90;37.06;102132.00;4984564;28;20041;-74
2022/08/11 11:09:54;;;;;;;6.20;1.45;;;29.50;72.30;;;28.98;37.47;102123.03;4954141;28;20038;-73
2022/08/11 11:18:27;;;;;;;11.27;1.38;;;29.40;75.00;;;28.67;38.18;102122.66;4956568;28;20073;-73
2022/08/11 11:21:04;;;;;;;3.03;1.52;;;29.20;73.40;;;28.62;38.20;102123.97;4956853;28;20143;-72
2022/08/11 11:24:10;;;;;;;1.98;1.40;;;29.30;74.90;;;28.56;37.58;102115.63;4959762;28;21105;-74
2022/08/11 11:27:01;;;;;;;2.88;1.40;;;29.30;74.20;;;28.73;37.19;102117.44;4967908;28;20034;-74
2022/08/11 11:30:06;;;;;;;5.00;1.30;;;29.00;73.80;;;28.26;38.84;102114.97;4940167;28;20483;-73
2022/08/11 11:32:34;;;;;;;3.30;1.50;;;29.00;73.80;;;28.52;38.43;102115.06;4954186;28;20046;-72
2022/08/11 11:35:14;;;;;;;2.58;1.35;;;29.00;72.60;;;28.38;38.85;102108.31;4965610;28;20450;-73
2022/08/11 11:37:47;;;;;;;2.85;1.25;;;29.00;73.40;;;28.63;37.68;102106.69;4970002;28;20045;-73
2022/08/11 11:40:21;;;;;;;2.83;1.30;;;28.90;74.30;;;28.31;39.03;102107.22;4967185;28;20151;-73
2022/08/11 11:42:51;;;;;;;2.97;1.20;;;29.00;72.10;;;28.53;37.58;102108.66;4953623;28;20043;-73
2022/08/11 11:45:21;;;;;;;3.28;1.55;;;29.10;74.10;;;28.76;38.17;102109.00;4955913;28;20407;-72
2022/08/11 11:47:57;;;;;;;8.38;1.40;;;29.10;74.10;;;28.35;38.46;102108.63;4958466;28;20030;-73
2022/08/11 11:50:29;;;;;;;4.53;1.40;;;29.10;72.60;;;28.53;38.32;102110.50;4952763;28;20096;-73
2022/08/11 11:52:57;;;;;;;9.55;1.25;;;29.10;73.80;;;28.67;37.88;102106.41;4954688;28;20098;-73
2022/08/11 11:55:25;;;;;;;2.00;1.20;;;29.10;73.30;;;28.66;38.00;102105.56;4960679;28;20499;-73
2022/08/11 12:10:00;;;;;;;6.18;1.50;;;29.20;73.60;;;28.75;37.77;102106.47;4967268;28;20061;-73
2022/08/11 12:15:12;;;;;;;6.63;1.25;;;28.80;72.20;;;28.27;38.06;102111.25;4953228;28;20457;-74
2022/08/11 12:17:38;;;;;;;2.53;1.30;;;28.60;74.70;;;27.90;39.59;102087.84;4967322;28;20158;-74
2022/08/11 12:20:06;;;;;;;5.15;1.40;;;28.50;77.10;;;27.76;40.51;102096.47;4956633;28;20488;-73
2022/08/11 12:28:03;;;;;;;11.50;1.70;;;27.90;77.60;;;27.17;41.69;102082.31;4963230;28;20068;-73
2022/08/11 12:30:29;;;;;;;2.80;1.70;;;27.80;79.40;;;27.26;41.85;102077.91;4967299;28;20035;-73
2022/08/11 12:32:57;;;;;;;10.80;1.92;;;27.90;79.40;;;27.44;42.30;102075.28;4957470;28;20125;-74
2022/08/11 12:35:22;;;;;;;7.93;1.77;;;28.00;80.90;;;27.53;42.93;102072.50;4960253;28;20518;-73
2022/08/11 12:37:56;;;;;;;3.08;1.58;;;28.00;79.80;;;27.57;43.23;102084.75;4945632;28;20102;-73
2022/08/11 12:46:11;;;;;;;4.57;1.52;;;27.80;79.10;;;27.10;42.80;102082.06;4954197;28;20454;-74
2022/08/11 12:54:44;;;;;;;2.58;1.42;;;27.60;80.10;;;27.05;43.22;102064.59;4958798;28;20041;-73
2022/08/11 13:05:54;;;;;;;4.00;1.30;;;27.70;79.30;;;27.09;42.08;102050.63;4968525;28;20041;-74
2022/08/11 13:08:24;;;;;;;4.47;1.10;;;27.80;78.20;;;27.32;41.82;102055.69;4963324;28;20038;-73
2022/08/11 13:13:41;;;;;;;8.00;1.55;;;28.10;77.30;;;27.57;41.01;102049.56;4961817;28;20037;-73
2022/08/11 13:16:09;;;;;;;4.88;1.60;;;28.10;77.80;;;27.57;41.60;102049.56;4972620;28;20038;-74
2022/08/11 13:18:41;;;;;;;5.50;1.30;;;28.10;77.00;;;27.51;40.37;102052.88;4974218;28;20055;-74
2022/08/11 13:21:08;;;;;;;6.50;1.42;;;28.20;77.30;;;27.54;40.80;102051.75;4961648;28;20539;-73
2022/08/11 13:23:36;;;;;;;3.85;1.40;;;28.20;79.50;;;27.71;41.96;102052.75;4956196;28;20035;-73
2022/08/11 13:26:03;;;;;;;4.57;1.30;;;28.30;76.60;;;27.61;41.00;102055.53;4962558;28;20034;-74
2022/08/11 13:28:30;;;;;;;2.55;1.23;;;28.20;75.60;;;27.53;40.25;102048.16;4960931;28;20042;-74
2022/08/11 13:31:13;;;;;;;3.17;1.40;;;28.10;75.40;;;27.46;40.60;102047.09;4962472;28;20035;-73
2022/08/11 13:33:48;;;;;;;3.70;1.25;;;28.10;76.00;;;27.47;41.02;102054.19;4952871;28;20030;-73
2022/08/11 13:36:21;;;;;;;4.18;1.50;;;28.20;76.70;;;27.81;40.12;102048.16;4957215;28;20114;-73
2022/08/11 13:38:48;;;;;;;7.30;1.63;;;28.20;75.60;;;27.74;40.19;102038.94;4939715;28;20100;-73
2022/08/11 13:44:02;;;;;;;5.60;1.30;;;28.30;76.80;;;27.89;40.24;102039.31;4968761;28;20106;-74
2022/08/11 13:46:28;;;;;;;3.17;1.20;;;28.40;74.60;;;27.82;39.38;102047.16;4949475;28;20106;-73
2022/08/11 13:48:56;;;;;;;5.07;1.35;;;28.30;73.50;;;27.75;38.99;102040.63;4956528;28;20050;-73
2022/08/11 13:51:34;;;;;;;8.07;1.55;;;28.30;74.70;;;27.83;39.54;102032.63;4957733;28;20042;-74
2022/08/11 13:54:18;;;;;;;1.95;1.30;;;28.30;74.60;;;27.78;39.17;102038.50;4962682;28;20651;-74
2022/08/11 13:56:48;;;;;;;1.85;1.10;;;28.30;74.20;;;27.86;38.99;102023.34;4972096;28;20058;-73
2022/08/11 13:59:24;;;;;;;3.97;1.10;;;28.40;76.40;;;27.94;40.18;102029.69;4971522;28;20446;-73
2022/08/11 14:02:05;;;;;;;6.68;1.20;;;28.20;74.90;;;27.54;39.81;102028.25;4967976;28;20045;-74
2022/08/11 14:04:56;;;;;;;5.70;1.20;;;28.10;75.50;;;27.40;40.13;102023.34;4955372;28;20049;-73
2022/08/11 14:07:34;;;;;;;7.25;1.20;;;28.10;75.90;;;27.60;40.33;102022.25;4960213;28;20052;-73
2022/08/11 14:10:00;;;;;;;3.67;1.30;;;28.10;76.40;;;27.67;40.08;102035.13;4944868;28;20502;-74
2022/08/11 14:15:34;;;;;;;7.53;1.42;;;28.20;76.10;;;27.75;39.66;102029.81;4950154;28;20127;-74
2022/08/11 14:18:10;;;;;;;5.88;1.27;;;28.30;76.10;;;27.89;39.76;102029.31;4963885;28;20042;-74
2022/08/11 14:23:39;;;;;;;4.18;1.38;;;28.30;76.60;;;27.91;39.61;102016.50;4940684;28;20041;-73
2022/08/11 14:26:25;;;;;;;4.63;1.40;;;28.30;74.10;;;27.87;39.10;102017.81;4957569;28;20125;-74
2022/08/11 14:29:04;;;;;;;3.95;1.10;;;28.30;75.70;;;27.80;40.03;102035.63;4954746;28;20084;-74
2022/08/11 14:31:33;;;;;;;4.78;1.10;;;28.20;73.60;;;27.54;38.84;102028.25;4972631;28;20097;-74
2022/08/11 14:34:03;;;;;;;3.92;0.95;;;28.10;74.00;;;27.65;39.21;102029.06;4953903;28;20407;-74
2022/08/11 14:36:42;;;;;;;5.38;1.02;;;28.20;73.30;;;27.65;39.34;102026.34;4958306;28;20601;-74
2022/08/11 14:39:16;;;;;;;3.70;1.13;;;28.10;75.70;;;27.63;40.35;102022.94;4958325;28;20245;-73
2022/08/11 14:48:09;;;;;;;5.10;1.10;;;28.10;70.30;;;27.51;37.64;102023.13;4880148;29;20124;-73
2022/08/11 14:50:35;;;;;;;4.45;0.95;;;28.10;73.70;;;27.45;39.27;102026.47;4943742;28;20121;-74
2022/08/11 14:53:07;;;;;;;9.23;1.30;;;28.00;72.80;;;27.49;39.32;102021.56;4961367;28;20403;-74
2022/08/11 14:58:32;;;;;;;8.70;1.33;;;27.80;74.70;;;27.26;39.99;102019.28;4959154;28;20069;-73
2022/08/11 15:01:01;;;;;;;3.55;1.10;;;27.80;75.00;;;27.20;39.84;102019.84;4944981;28;20035;-74
2022/08/11 15:03:32;;;;;;;2.35;1.13;;;27.50;74.80;;;26.58;40.35;102020.31;4960544;28;20050;-74
2022/08/11 15:06:03;;;;;;;6.15;1.35;;;27.40;76.00;;;26.68;40.42;102001.41;4958375;28;20046;-73
2022/08/11 15:14:11;;;;;;;5.75;1.42;;;27.10;77.60;;;26.59;40.86;102002.28;4959279;28;20581;-73
2022/08/11 15:19:30;;;;;;;4.32;1.25;;;27.10;76.70;;;26.64;40.71;101983.78;4957456;28;20120;-73
2022/08/11 15:24:40;;;;;;;2.85;1.27;;;26.80;74.50;;;26.05;40.60;101985.69;4958040;28;20157;-73
2022/08/11 15:38:24;;;;;;;2.58;1.20;;;26.70;78.30;;;25.89;42.08;101970.06;4947352;28;20053;-73
2022/08/11 15:46:46;;;;;;;6.07;1.40;;;26.10;76.20;;;25.21;42.13;101961.00;4964274;28;20033;-73